Burtonsville, New York
Current Conditions -  °F | °C
As of 10:35 AM on Friday 28 Nov 2014 (Local Time) from KNY0 Reporting Station
Broken Clouds Broken Clouds  
Wind Chill: -9°   Ceiling: 5500
Heat Index: -4°   Visibility: 10mi
Dew Point: -10°   Wind: 8mph
Humidity: 66%   Direction: 300°WNW
Pressure: 30.12"   Gusts: 16mph
Location:  42.7904°N, 74.3145°W
Report Text: KNY0 281535Z AUTO 30007G14KT 10SM SCT039 SCT047 BKN055 M04/M10 A3012 RMK AO2 T10431098
Loading
Personal Weather Stations






























Interactive Weather Map New forecast layout! Learn more

10-Day Weather Forecast

Advertisements
Track Severe Weather on mobile